Nearby METAR Reports

 

KDLS - The Dalles, Oregon, USA
Distance from station: NNE 2mi, 3km
Updated: Fri, 09-Dec-2022 2:53pm PST
Overcast
Overcast
 Wind from SW
Wind: SW 5 mph , 7 km/h
Temperature: 36°F , 2°C
Wind Chill: 32°F , 0°C
Dew Point: 30°F , -1°C
Humidity: 81%
Barometer: 29.84 inHg , 1010.5 hPa
Clouds: Overcast
Visibility: 9 miles , 14 km
Cloud details: Overcast 9000 ft
2022/12/09 22:53 KDLS 092253Z AUTO 23004KT 9SM OVC090 02/M01 A2984 RMK AO2 SLP108 T00221006
KTTD - Troutdale, Oregon, USA
Distance from station: W 60mi, 96km
Updated: Fri, 09-Dec-2022 2:53pm PST
Light rain, Overcast
Light rain, Overcast
 Wind from E
Wind: E 18 mph , 30 km/h, Gust: 29 mph , 46 km/h
Temperature: 39°F , 4°C
Wind Chill: 30°F , -1°C
Dew Point: 36°F , 2°C
Humidity: 87%
Barometer: 29.71 inHg , 1006.1 hPa
Summary: Light rain
Clouds: Overcast
Visibility: 6 miles , 10 km
Cloud details: Overcast 3100 ft
2022/12/09 22:53 KTTD 092253Z 09016G25KT 6SM -RA OVC031 04/02 A2971 RMK AO2 SLP061 P0008 T00440017
 
KPDX - Portland, Oregon, USA
Distance from station: W 69mi, 111km
Updated: Fri, 09-Dec-2022 2:53pm PST
Rain, Overcast
Rain, Overcast
 Wind from ESE
Wind: ESE 17 mph , 28 km/h
Temperature: 41°F , 5°C
Wind Chill: 33°F , 1°C
Dew Point: 36°F , 2°C
Humidity: 81%
Barometer: 29.69 inHg , 1005.4 hPa
Summary: Rain
Clouds: Overcast
Visibility: 6 miles , 10 km
Cloud details: Overcast 3100 ft
2022/12/09 22:53 KPDX 092253Z 11015KT 6SM RA OVC031 05/02 A2969 RMK AO2 SLP054 P0008 T00500022
KVUO - Vancouver, Washington, USA
Distance from station: W 71mi, 114km
Updated: Fri, 09-Dec-2022 2:53pm PST
Light rain, Mist, Overcast
Light rain, Mist, Overcast
 Wind from ESE
Wind: ESE 13 mph , 20 km/h
Temperature: 41°F , 5°C
Wind Chill: 34°F , 1°C
Dew Point: 37°F , 3°C
Humidity: 87%
Barometer: 29.70 inHg , 1005.8 hPa
Summary: Light rain, Mist
Clouds: Overcast
Visibility: 5 miles , 8 km
Cloud details: Overcast 3000 ft
2022/12/09 22:53 KVUO 092253Z AUTO 12011KT 5SM -RA BR OVC030 05/03 A2970 RMK AO2 SLP057 P0006 T00500033
 
KYKM - Yakima, Washington, USA
Distance from station: NNE 74mi, 120km
Updated: Fri, 09-Dec-2022 2:53pm PST
Overcast
Overcast
 Wind from calm
Wind: Calm
Temperature: 25°F , -4°C
Dew Point: 19°F , -7°C
Humidity: 80%
Barometer: 29.87 inHg , 1011.5 hPa
Clouds: Overcast
Visibility: 7 miles , 11 km
Cloud details: Overcast 7000 ft
2022/12/09 22:53 KYKM 092253Z AUTO 00000KT 7SM OVC070 M04/M07 A2987 RMK AO2 SLP131 T10391067
KUAO - Aurora, Oregon, USA
Distance from station: WSW 80mi, 129km
Updated: Fri, 09-Dec-2022 2:53pm PST
Light rain, Overcast
Light rain, Overcast
 Wind from ESE
Wind: ESE 5 mph , 7 km/h
Temperature: 45°F , 7°C
Wind Chill: 42°F , 6°C
Dew Point: 39°F , 4°C
Humidity: 81%
Barometer: 29.67 inHg , 1004.7 hPa
Summary: Light rain
Clouds: Overcast
Visibility: 4 miles , 6 km
Cloud details: Overcast 2700 ft
2022/12/09 22:53 KUAO 092253Z 11004KT 4SM -RA OVC027 07/04 A2967 RMK AO2 SLP047 P0005 T00670039
 
KSPB - Scappoose, Oregon, USA
Distance from station: W 82mi, 132km
Updated: Fri, 09-Dec-2022 3:30pm PST
Rain, Mist, Overcast
Rain, Mist, Overcast
 Wind from S
Wind: S 8 mph , 13 km/h
Temperature: 39°F , 4°C
Wind Chill: 33°F , 1°C
Dew Point: 37°F , 3°C
Humidity: 93%
Barometer: 29.65 inHg , 1004.1 hPa
Summary: Rain, Mist
Clouds: Overcast
Visibility: 4 miles , 6 km
Cloud details: Mostly cloudy 1200 ft
Overcast 2000 ft
2022/12/09 23:30 KSPB 092330Z AUTO 19007KT 4SM RA BR BKN012 OVC020 04/03 A2965 RMK AO2 P0006 T00440028
KHIO - Hillsboro/Portld, Oregon, USA
Distance from station: W 85mi, 137km
Updated: Fri, 09-Dec-2022 2:53pm PST
Rain, Mist, Overcast
Rain, Mist, Overcast
 Wind from SE
Wind: SE 13 mph , 20 km/h
Temperature: 43°F , 6°C
Wind Chill: 36°F , 2°C
Dew Point: 39°F , 4°C
Humidity: 87%
Barometer: 29.66 inHg , 1004.4 hPa
Summary: Rain, Mist
Clouds: Overcast
Visibility: 3 miles , 5 km
Cloud details: Overcast 2300 ft
2022/12/09 22:53 KHIO 092253Z 13011KT 3SM RA BR OVC023 06/04 A2966 RMK AO2 SLP043 P0008 T00560044
 
KKLS - Kelso Longveiw, Washington, USA
Distance from station: WNW 90mi, 145km
Updated: Fri, 09-Dec-2022 2:56pm PST
Light rain, Overcast
Light rain, Overcast
 Wind from SSE
Wind: SSE 12 mph , 19 km/h, Gust: 21 mph , 33 km/h
Temperature: 43°F , 6°C
Wind Chill: 37°F , 3°C
Dew Point: 37°F , 3°C
Humidity: 81%
Barometer: 29.65 inHg , 1004.1 hPa
Summary: Light rain
Clouds: Overcast
Visibility: 10 miles , 16 km
Cloud details: Overcast 2500 ft
2022/12/09 22:56 KKLS 092256Z AUTO 15010G18KT 10SM -RA OVC025 06/03 A2965 RMK AO2 SLP045 P0004 T00560033
KRDM - Redmond, Oregon, USA
Distance from station: S 93mi, 149km
Updated: Fri, 09-Dec-2022 2:56pm PST
Overcast
Overcast
 Wind from SSE
Wind: SSE 18 mph , 30 km/h, Gust: 26 mph , 43 km/h
Temperature: 37°F , 3°C
Wind Chill: 27°F , -3°C
Dew Point: 25°F , -4°C
Humidity: 60%
Barometer: 29.76 inHg , 1007.8 hPa
Clouds: Overcast
Visibility: 10 miles , 16 km
Cloud details: Mostly cloudy 7000 ft
Overcast 9500 ft
2022/12/09 22:56 KRDM 092256Z 16016G23KT 10SM BKN070 OVC095 03/M04 A2976 RMK AO2 SLP095 T00331044
 
KHRI - Hermiston, Oregon, USA
Distance from station: E 94mi, 151km
Updated: Fri, 09-Dec-2022 3:28pm PST
Mist, Mostly cloudy
Mist, Mostly cloudy
 Wind from ENE
Wind: ENE 7 mph , 11 km/h
Temperature: 34°F , 1°C
Wind Chill: 28°F , -2°C
Dew Point: 30°F , -1°C
Humidity: 87%
Barometer: 29.86 inHg , 1011.2 hPa
Summary: Mist
Clouds: Mostly cloudy
Visibility: 3 miles , 5 km
Cloud details: Mostly cloudy 10000 ft
Mostly cloudy 12000 ft
2022/12/09 23:28 KHRI 092328Z AUTO 07006KT 3SM BR BKN100 BKN120 01/M01 A2986 RMK AO2 T00111006
KMMV - Mcminnville, Oregon, USA
Distance from station: WSW 98mi, 158km
Updated: Fri, 09-Dec-2022 2:53pm PST
Light rain, Mist, Overcast
Light rain, Mist, Overcast
 Wind from SSE
Wind: SSE 10 mph , 17 km/h
Temperature: 43°F , 6°C
Wind Chill: 37°F , 3°C
Dew Point: 39°F , 4°C
Humidity: 87%
Barometer: 29.65 inHg , 1004.1 hPa
Summary: Light rain, Mist
Clouds: Overcast
Visibility: 6 miles , 10 km
Cloud details: Overcast 2500 ft
2022/12/09 22:53 KMMV 092253Z AUTO 16009KT 6SM -RA BR OVC025 06/04 A2965 RMK AO2 SLP042 P0008 T00610044
 
KSLE - Salem, Oregon, USA
Distance from station: WSW 100mi, 161km
Updated: Fri, 09-Dec-2022 3:32pm PST
Light rain, Mist, Overcast
Light rain, Mist, Overcast
 Wind from SSE
Wind: SSE 13 mph , 20 km/h
Temperature: 45°F , 7°C
Wind Chill: 39°F , 4°C
Dew Point: 39°F , 4°C
Humidity: 81%
Barometer: 29.61 inHg , 1002.7 hPa
Summary: Light rain, Mist
Clouds: Overcast
Visibility: 2 1/2 miles , 4 km
Cloud details: Mostly cloudy 1700 ft
Overcast 3200 ft
2022/12/09 23:32 KSLE 092332Z 16011KT 2 1/2SM -RA BR BKN017 OVC032 07/04 A2961 RMK AO2 P0003 T00670044
KBDN - Bend, Oregon, USA
Distance from station: S 103mi, 166km
Updated: Fri, 09-Dec-2022 3:30pm PST
Light, Few clouds
Light, Few clouds
 Wind from S
Wind: S 13 mph , 20 km/h
Temperature: 36°F , 2°C
Wind Chill: 27°F , -3°C
Dew Point: 27°F , -3°C
Humidity: 70%
Barometer: 29.76 inHg , 1007.8 hPa
Summary: Light
Clouds: Few Clouds
Visibility: 10 miles , 16 km
Cloud details: Few Clouds 2200 ft
Few Clouds 2900 ft
Few Clouds 3600 ft
2022/12/09 23:30 KBDN 092330Z AUTO 18011KT 10SM -UP FEW022 FEW029 FEW036 02/M03 A2976 RMK AO2
 
KELN - Ellensburg, Washington, USA
Distance from station: NNE 104mi, 168km
Updated: Fri, 09-Dec-2022 3:35pm PST
Overcast
Overcast
 Wind from E
Wind: E 6 mph , 9 km/h
Temperature: 25°F , -4°C
Wind Chill: 18°F , -8°C
Dew Point: 18°F , -8°C
Humidity: 74%
Barometer: 29.82 inHg , 1009.8 hPa
Clouds: Overcast
Visibility: 8 miles , 13 km
Cloud details: Overcast 3000 ft
2022/12/09 23:35 KELN 092335Z AUTO 10005KT 8SM OVC030 M04/M08 A2982 RMK AO2 T10441078
KPSC - Pasco, Washington, USA
Distance from station: ENE 110mi, 177km
Updated: Fri, 09-Dec-2022 3:01pm PST
Mist, Overcast
Mist, Overcast
 Wind from W
Wind: W 7 mph , 11 km/h
Temperature: 27°F , -3°C
Wind Chill: 19°F , -7°C
Dew Point: 23°F , -5°C
Humidity: 86%
Barometer: 29.94 inHg , 1013.9 hPa
Summary: Mist
Clouds: Overcast
Visibility: 2 miles , 3 km
Cloud details: Overcast 400 ft
2022/12/09 23:01 KPSC 092301Z 28006KT 2SM BR OVC004 M03/M05 A2994 RMK AO2 CIG 003V007 T10331050
 
KPDT - Pendleton, Oregon, USA
Distance from station: E 114mi, 183km
Updated: Fri, 09-Dec-2022 2:53pm PST
Overcast
Overcast
 Wind from SE
Wind: SE 9 mph , 15 km/h
Temperature: 43°F , 6°C
Wind Chill: 38°F , 3°C
Dew Point: 27°F , -3°C
Humidity: 53%
Barometer: 29.87 inHg , 1011.5 hPa
Clouds: Overcast
Visibility: 10 miles , 16 km
Cloud details: Overcast 8000 ft
2022/12/09 22:53 KPDT 092253Z 14008KT 10SM OVC080 06/M03 A2987 RMK AO2 SLP119 T00561028
KCLS - Chehalis Central, Washington, USA
Distance from station: NW 115mi, 184km
Updated: Fri, 09-Dec-2022 3:35pm PST
Light rain, Overcast
Light rain, Overcast
 Wind from SSE
Wind: SSE 8 mph , 13 km/h, Gust: 14 mph , 22 km/h
Temperature: 43°F , 6°C
Wind Chill: 38°F , 3°C
Dew Point: 41°F , 5°C
Humidity: 93%
Barometer: 29.58 inHg , 1001.7 hPa
Summary: Light rain
Clouds: Overcast
Visibility: 5 miles , 8 km
Cloud details: Overcast 2500 ft
2022/12/09 23:35 KCLS 092335Z AUTO 15007G12KT 5SM -RA OVC025 06/05 A2958 RMK AO2
 
KPLU - Puyallup/Thun, Washington, USA
Distance from station: NNW 117mi, 188km
Updated: Fri, 09-Dec-2022 3:35pm PST
Overcast
Overcast
 Wind from calm
Wind: Calm
Temperature: 41°F , 5°C
Dew Point: 39°F , 4°C
Humidity: 93%
Barometer: 29.62 inHg , 1003 hPa
Clouds: Overcast
Visibility: 10 miles , 16 km
Cloud details: Mostly cloudy 3600 ft
Mostly cloudy 4300 ft
Overcast 5000 ft
2022/12/09 23:35 KPLU 092335Z AUTO 00000KT 10SM BKN036 BKN043 OVC050 05/04 A2962 RMK AO2
KCVO - Corvallis Muni A, Oregon, USA
Distance from station: WNW 167mi, 269km
Updated: Fri, 09-Dec-2022 3:35pm PST
Light rain, Overcast
Light rain, Overcast
 Wind from S
Wind: S 15 mph , 24 km/h
Temperature: 43°F , 6°C
Wind Chill: 36°F , 2°C
Dew Point: 39°F , 4°C
Humidity: 87%
Barometer: 29.64 inHg , 1003.7 hPa
Summary: Light rain
Clouds: Overcast
Visibility: 10 miles , 16 km
Cloud details: Mostly cloudy 3100 ft
Mostly cloudy 3800 ft
Overcast 4900 ft
2022/12/09 23:35 KCVO 092335Z AUTO 19013KT 10SM -RA BKN031 BKN038 OVC049 06/04 A2964 RMK AO2 P0002
 
KEUG - Eugene, Oregon, USA
Distance from station: W 193mi, 310km
Updated: Fri, 09-Dec-2022 2:54pm PST
Light rain, Overcast
Light rain, Overcast
 Wind from S
Wind: S 20 mph , 31 km/h, Gust: 24 mph , 39 km/h
Temperature: 46°F , 8°C
Wind Chill: 38°F , 3°C
Dew Point: 37°F , 3°C
Humidity: 71%
Barometer: 29.68 inHg , 1005.1 hPa
Summary: Light rain
Clouds: Overcast
Visibility: 8 miles , 13 km
Cloud details: Partly cloudy 3100 ft
Mostly cloudy 4800 ft
Overcast 6000 ft
2022/12/09 22:54 KEUG 092254Z 17017G21KT 8SM -RA SCT031 BKN048 OVC060 08/03 A2968 RMK AO2 SLP050 P0002 T00780033
KRBG - Roseburg, Oregon, USA
Distance from station: WSW 196mi, 315km
Updated: Fri, 09-Dec-2022 2:53pm PST
Overcast
Overcast
 Wind from S
Wind: S 12 mph , 19 km/h, Gust: 26 mph , 43 km/h
Temperature: 48°F , 9°C
Wind Chill: 43°F , 6°C
Dew Point: 34°F , 1°C
Humidity: 58%
Barometer: 29.72 inHg , 1006.4 hPa
Clouds: Overcast
Visibility: 10 miles , 16 km
Cloud details: Mostly cloudy 5500 ft
Overcast 7000 ft
2022/12/09 22:53 KRBG 092253Z AUTO 17010G23KT 10SM BKN055 OVC070 09/01 A2972 RMK AO2 SLP067 T00940011
 
KLKV - Lakeview, Oregon, USA
Distance from station: SSE 239mi, 385km
Updated: Fri, 09-Dec-2022 3:34pm PST
Light snow, Mist, Overcast
Light snow, Mist, Overcast
 Wind from S
Wind: S 13 mph , 20 km/h
Temperature: 28°F , -2°C
Wind Chill: 17°F , -8°C
Dew Point: 27°F , -3°C
Humidity: 93%
Barometer: 29.93 inHg , 1013.5 hPa
Summary: Light snow, Mist
Clouds: Overcast
Visibility: 6 miles , 10 km
Cloud details: Few Clouds 1500 ft
Mostly cloudy 3500 ft
Overcast 6000 ft
2022/12/09 23:34 KLKV 092334Z AUTO 17011KT 6SM -SN BR FEW015 BKN035 OVC060 M02/M03 A2993 RMK AO2 P0000 FZRANO
KMFR - Medford, Oregon, USA
Distance from station: WSW 241mi, 388km
Updated: Fri, 09-Dec-2022 2:53pm PST
Overcast
Overcast
 Wind from S
Wind: S 12 mph , 19 km/h
Temperature: 46°F , 8°C
Wind Chill: 40°F , 4°C
Dew Point: 30°F , -1°C
Humidity: 53%
Barometer: 29.82 inHg , 1009.8 hPa
Clouds: Overcast
Visibility: 10 miles , 16 km
Cloud details: Few Clouds 6000 ft
Mostly cloudy 8000 ft
Overcast 10000 ft
2022/12/09 22:53 KMFR 092253Z 18010KT 10SM FEW060 BKN080 OVC100 08/M01 A2982 RMK AO2 SLP104 T00831006
 
KBNO - Burns, Oregon, USA
Distance from station: ESE 249mi, 280km
Updated: Fri, 09-Dec-2022 3:34pm PST
Light snow, Overcast
Light snow, Overcast
 Wind from ENE
Wind: ENE 7 mph , 11 km/h
Temperature: 27°F , -3°C
Wind Chill: 19°F , -7°C
Dew Point: 19°F , -7°C
Humidity: 74%
Barometer: 29.93 inHg , 1013.5 hPa
Summary: Light Snow
Clouds: Overcast
Visibility: 4 miles , 6 km
Cloud details: Overcast 3200 ft
2022/12/09 23:34 KBNO 092334Z AUTO 07006KT 4SM -SN OVC032 M03/M07 A2993 RMK AO2 SNB00 P0000 T10331067
KLMT - Klamath Falls, Oregon, USA
Distance from station: SSW 266mi, 428km
Updated: Fri, 09-Dec-2022 2:53pm PST
Overcast
Overcast
 Wind from S
Wind: S 15 mph , 24 km/h
Temperature: 34°F , 1°C
Wind Chill: 24°F , -4°C
Dew Point: 27°F , -3°C
Humidity: 75%
Barometer: 29.86 inHg , 1011.2 hPa
Clouds: Overcast
Visibility: 10 miles , 16 km
Cloud details: Mostly cloudy 1700 ft
Overcast 4700 ft
2022/12/09 22:53 KLMT 092253Z 17013KT 10SM BKN017 OVC047 01/M03 A2986 RMK AO2 SNE42 SLP136 P0000 T00061028